sensor_id;sensor_type;location;lat;lon;timestamp;temperature;humidity
67093;SHT31;54011;50.772;7.730;2023-05-10T00:01:35;17.49;74.76
67093;SHT31;54011;50.772;7.730;2023-05-10T00:04:01;17.25;75.56
67093;SHT31;54011;50.772;7.730;2023-05-10T00:06:27;17.22;76.46
67093;SHT31;54011;50.772;7.730;2023-05-10T00:08:53;17.43;75.33
67093;SHT31;54011;50.772;7.730;2023-05-10T00:11:18;17.43;75.43
67093;SHT31;54011;50.772;7.730;2023-05-10T00:13:43;17.63;74.81
67093;SHT31;54011;50.772;7.730;2023-05-10T00:16:09;17.54;74.95
67093;SHT31;54011;50.772;7.730;2023-05-10T00:18:34;17.49;75.22
67093;SHT31;54011;50.772;7.730;2023-05-10T00:21:00;17.15;75.97
67093;SHT31;54011;50.772;7.730;2023-05-10T00:23:25;17.33;75.25
67093;SHT31;54011;50.772;7.730;2023-05-10T00:25:51;17.15;75.86
67093;SHT31;54011;50.772;7.730;2023-05-10T00:28:16;17.27;75.07
67093;SHT31;54011;50.772;7.730;2023-05-10T00:30:42;17.42;75.43
67093;SHT31;54011;50.772;7.730;2023-05-10T00:33:08;17.25;75.38
67093;SHT31;54011;50.772;7.730;2023-05-10T00:35:33;17.33;75.63
67093;SHT31;54011;50.772;7.730;2023-05-10T00:37:59;17.39;74.98
67093;SHT31;54011;50.772;7.730;2023-05-10T00:40:24;17.54;74.88
67093;SHT31;54011;50.772;7.730;2023-05-10T00:42:54;17.46;75.04
67093;SHT31;54011;50.772;7.730;2023-05-10T00:45:20;17.74;74.87
67093;SHT31;54011;50.772;7.730;2023-05-10T00:47:49;17.27;76.02
67093;SHT31;54011;50.772;7.730;2023-05-10T00:50:15;17.05;76.24
67093;SHT31;54011;50.772;7.730;2023-05-10T00:52:41;17.37;75.36
67093;SHT31;54011;50.772;7.730;2023-05-10T00:55:09;17.44;75.16
67093;SHT31;54011;50.772;7.730;2023-05-10T00:57:34;17.43;75.35
67093;SHT31;54011;50.772;7.730;2023-05-10T01:00:01;17.39;75.06
67093;SHT31;54011;50.772;7.730;2023-05-10T01:02:27;17.12;75.88
67093;SHT31;54011;50.772;7.730;2023-05-10T01:04:53;17.51;75.02
67093;SHT31;54011;50.772;7.730;2023-05-10T01:07:19;17.50;74.70
67093;SHT31;54011;50.772;7.730;2023-05-10T01:09:45;17.35;75.27
67093;SHT31;54011;50.772;7.730;2023-05-10T01:12:11;17.36;75.19
67093;SHT31;54011;50.772;7.730;2023-05-10T01:14:36;17.62;74.68
67093;SHT31;54011;50.772;7.730;2023-05-10T01:17:03;17.37;75.77
67093;SHT31;54011;50.772;7.730;2023-05-10T01:19:31;17.33;75.18
67093;SHT31;54011;50.772;7.730;2023-05-10T01:27:51;17.51;75.46
67093;SHT31;54011;50.772;7.730;2023-05-10T01:38:32;17.50;75.06
67093;SHT31;54011;50.772;7.730;2023-05-10T01:44:29;17.44;75.27
67093;SHT31;54011;50.772;7.730;2023-05-10T01:47:10;17.30;75.48
67093;SHT31;54011;50.772;7.730;2023-05-10T01:49:43;17.47;75.25
67093;SHT31;54011;50.772;7.730;2023-05-10T01:52:15;17.35;75.01
67093;SHT31;54011;50.772;7.730;2023-05-10T01:54:48;17.74;74.36
67093;SHT31;54011;50.772;7.730;2023-05-10T01:57:23;17.57;74.25
67093;SHT31;54011;50.772;7.730;2023-05-10T01:59:52;17.63;74.16
67093;SHT31;54011;50.772;7.730;2023-05-10T02:02:22;17.85;73.94
67093;SHT31;54011;50.772;7.730;2023-05-10T02:04:50;17.73;74.04
67093;SHT31;54011;50.772;7.730;2023-05-10T02:07:17;17.75;73.95
67093;SHT31;54011;50.772;7.730;2023-05-10T02:09:45;17.91;73.65
67093;SHT31;54011;50.772;7.730;2023-05-10T02:12:13;17.98;73.18
67093;SHT31;54011;50.772;7.730;2023-05-10T02:14:42;18.06;73.02
67093;SHT31;54011;50.772;7.730;2023-05-10T02:17:09;18.04;73.09
67093;SHT31;54011;50.772;7.730;2023-05-10T02:19:37;18.48;72.09
67093;SHT31;54011;50.772;7.730;2023-05-10T02:22:03;18.11;72.82
67093;SHT31;54011;50.772;7.730;2023-05-10T02:24:29;18.16;72.84
67093;SHT31;54011;50.772;7.730;2023-05-10T02:26:56;17.91;73.32
67093;SHT31;54011;50.772;7.730;2023-05-10T02:29:24;18.06;72.95
67093;SHT31;54011;50.772;7.730;2023-05-10T02:31:54;17.91;73.50
67093;SHT31;54011;50.772;7.730;2023-05-10T02:34:25;17.84;73.52
67093;SHT31;54011;50.772;7.730;2023-05-10T02:36:53;18.01;73.39
67093;SHT31;54011;50.772;7.730;2023-05-10T02:39:20;18.01;73.57
67093;SHT31;54011;50.772;7.730;2023-05-10T02:41:47;18.38;72.28
67093;SHT31;54011;50.772;7.730;2023-05-10T02:44:15;18.35;72.45
67093;SHT31;54011;50.772;7.730;2023-05-10T02:46:41;18.29;72.85
67093;SHT31;54011;50.772;7.730;2023-05-10T02:49:06;18.41;72.54
67093;SHT31;54011;50.772;7.730;2023-05-10T02:51:35;18.48;72.32
67093;SHT31;54011;50.772;7.730;2023-05-10T02:54:13;17.94;73.36
67093;SHT31;54011;50.772;7.730;2023-05-10T02:56:44;17.88;73.46
67093;SHT31;54011;50.772;7.730;2023-05-10T02:59:12;17.62;74.03
67093;SHT31;54011;50.772;7.730;2023-05-10T03:01:37;17.63;74.32
67093;SHT31;54011;50.772;7.730;2023-05-10T03:04:04;17.90;73.51
67093;SHT31;54011;50.772;7.730;2023-05-10T03:06:32;17.93;73.45
67093;SHT31;54011;50.772;7.730;2023-05-10T03:08:58;17.66;74.25
67093;SHT31;54011;50.772;7.730;2023-05-10T03:11:34;17.78;73.76
67093;SHT31;54011;50.772;7.730;2023-05-10T03:14:21;17.84;73.43
67093;SHT31;54011;50.772;7.730;2023-05-10T03:22:47;17.88;73.82
67093;SHT31;54011;50.772;7.730;2023-05-10T03:25:16;17.87;74.12
67093;SHT31;54011;50.772;7.730;2023-05-10T03:27:45;16.95;75.63
67093;SHT31;54011;50.772;7.730;2023-05-10T03:30:13;17.63;74.72
67093;SHT31;54011;50.772;7.730;2023-05-10T03:32:39;17.84;74.02
67093;SHT31;54011;50.772;7.730;2023-05-10T03:35:09;17.22;74.76
67093;SHT31;54011;50.772;7.730;2023-05-10T03:37:37;17.81;74.08
67093;SHT31;54011;50.772;7.730;2023-05-10T03:40:04;17.84;74.13
67093;SHT31;54011;50.772;7.730;2023-05-10T03:42:32;18.05;73.17
67093;SHT31;54011;50.772;7.730;2023-05-10T03:44:58;18.04;73.13
67093;SHT31;54011;50.772;7.730;2023-05-10T03:47:24;17.90;73.28
67093;SHT31;54011;50.772;7.730;2023-05-10T03:49:51;18.08;73.53
67093;SHT31;54011;50.772;7.730;2023-05-10T03:52:17;17.88;73.10
67093;SHT31;54011;50.772;7.730;2023-05-10T03:54:44;17.54;74.37
67093;SHT31;54011;50.772;7.730;2023-05-10T03:57:12;17.93;73.52
67093;SHT31;54011;50.772;7.730;2023-05-10T03:59:39;17.88;73.27
67093;SHT31;54011;50.772;7.730;2023-05-10T04:02:08;17.95;73.38
67093;SHT31;54011;50.772;7.730;2023-05-10T04:04:35;18.04;73.07
67093;SHT31;54011;50.772;7.730;2023-05-10T04:07:01;17.66;74.53
67093;SHT31;54011;50.772;7.730;2023-05-10T04:09:26;17.74;73.82
67093;SHT31;54011;50.772;7.730;2023-05-10T04:11:58;17.78;73.80
67093;SHT31;54011;50.772;7.730;2023-05-10T04:14:23;18.00;73.12
67093;SHT31;54011;50.772;7.730;2023-05-10T04:16:49;18.19;72.50
67093;SHT31;54011;50.772;7.730;2023-05-10T04:19:14;18.05;73.10
67093;SHT31;54011;50.772;7.730;2023-05-10T04:21:41;17.88;73.72
67093;SHT31;54011;50.772;7.730;2023-05-10T04:24:08;17.91;73.35
67093;SHT31;54011;50.772;7.730;2023-05-10T04:26:33;17.85;73.41
67093;SHT31;54011;50.772;7.730;2023-05-10T04:28:59;17.84;73.28
67093;SHT31;54011;50.772;7.730;2023-05-10T04:31:24;17.71;74.24
67093;SHT31;54011;50.772;7.730;2023-05-10T04:33:50;18.00;73.33
67093;SHT31;54011;50.772;7.730;2023-05-10T04:36:15;17.83;73.62
67093;SHT31;54011;50.772;7.730;2023-05-10T04:38:42;18.11;73.28
67093;SHT31;54011;50.772;7.730;2023-05-10T04:41:10;18.24;72.90
67093;SHT31;54011;50.772;7.730;2023-05-10T04:43:36;18.02;73.10
67093;SHT31;54011;50.772;7.730;2023-05-10T04:46:04;17.80;73.94
67093;SHT31;54011;50.772;7.730;2023-05-10T04:48:29;17.32;74.85
67093;SHT31;54011;50.772;7.730;2023-05-10T04:50:55;17.32;75.13
67093;SHT31;54011;50.772;7.730;2023-05-10T04:53:21;17.62;74.38
67093;SHT31;54011;50.772;7.730;2023-05-10T04:55:46;17.73;74.20
67093;SHT31;54011;50.772;7.730;2023-05-10T04:58:13;17.56;74.94
67093;SHT31;54011;50.772;7.730;2023-05-10T05:00:38;17.78;74.36
67093;SHT31;54011;50.772;7.730;2023-05-10T05:03:04;17.33;75.28
67093;SHT31;54011;50.772;7.730;2023-05-10T05:05:30;17.71;74.09
67093;SHT31;54011;50.772;7.730;2023-05-10T05:07:56;17.32;75.61
67093;SHT31;54011;50.772;7.730;2023-05-10T05:10:21;18.00;73.77
67093;SHT31;54011;50.772;7.730;2023-05-10T05:12:47;18.18;73.38
67093;SHT31;54011;50.772;7.730;2023-05-10T05:15:12;18.28;73.17
67093;SHT31;54011;50.772;7.730;2023-05-10T05:17:38;17.87;73.89
67093;SHT31;54011;50.772;7.730;2023-05-10T05:20:05;17.83;74.24
67093;SHT31;54011;50.772;7.730;2023-05-10T05:22:32;17.91;74.09
67093;SHT31;54011;50.772;7.730;2023-05-10T05:24:59;18.08;73.71
67093;SHT31;54011;50.772;7.730;2023-05-10T05:27:24;18.05;73.29
67093;SHT31;54011;50.772;7.730;2023-05-10T05:29:55;18.21;73.05
67093;SHT31;54011;50.772;7.730;2023-05-10T05:32:21;17.93;73.79
67093;SHT31;54011;50.772;7.730;2023-05-10T05:34:47;18.21;73.29
67093;SHT31;54011;50.772;7.730;2023-05-10T05:37:18;18.22;73.03
67093;SHT31;54011;50.772;7.730;2023-05-10T05:39:44;18.31;73.20
67093;SHT31;54011;50.772;7.730;2023-05-10T05:42:10;18.48;72.61
67093;SHT31;54011;50.772;7.730;2023-05-10T05:44:36;18.32;72.93
67093;SHT31;54011;50.772;7.730;2023-05-10T05:47:02;18.65;72.34
67093;SHT31;54011;50.772;7.730;2023-05-10T05:49:27;18.41;72.55
67093;SHT31;54011;50.772;7.730;2023-05-10T05:51:54;18.36;72.53
67093;SHT31;54011;50.772;7.730;2023-05-10T05:54:19;18.48;72.51
67093;SHT31;54011;50.772;7.730;2023-05-10T05:56:45;18.80;71.72
67093;SHT31;54011;50.772;7.730;2023-05-10T05:59:12;18.65;72.24
67093;SHT31;54011;50.772;7.730;2023-05-10T06:01:38;18.62;72.26
67093;SHT31;54011;50.772;7.730;2023-05-10T06:04:04;18.72;71.87
67093;SHT31;54011;50.772;7.730;2023-05-10T06:06:29;18.96;71.67
67093;SHT31;54011;50.772;7.730;2023-05-10T06:08:56;18.69;72.03
67093;SHT31;54011;50.772;7.730;2023-05-10T06:11:21;18.97;71.58
67093;SHT31;54011;50.772;7.730;2023-05-10T06:13:47;19.07;71.43
67093;SHT31;54011;50.772;7.730;2023-05-10T06:16:13;18.83;71.86
67093;SHT31;54011;50.772;7.730;2023-05-10T06:18:39;19.18;71.60
67093;SHT31;54011;50.772;7.730;2023-05-10T06:21:05;18.97;71.74
67093;SHT31;54011;50.772;7.730;2023-05-10T06:23:33;18.79;72.30
67093;SHT31;54011;50.772;7.730;2023-05-10T06:25:59;18.69;72.91
67093;SHT31;54011;50.772;7.730;2023-05-10T06:28:25;18.74;72.56
67093;SHT31;54011;50.772;7.730;2023-05-10T06:30:51;18.62;72.88
67093;SHT31;54011;50.772;7.730;2023-05-10T06:33:16;18.76;72.70
67093;SHT31;54011;50.772;7.730;2023-05-10T06:35:42;18.89;72.56
67093;SHT31;54011;50.772;7.730;2023-05-10T06:38:09;18.87;72.35
67093;SHT31;54011;50.772;7.730;2023-05-10T06:40:34;18.70;73.24
67093;SHT31;54011;50.772;7.730;2023-05-10T06:43:01;18.67;72.88
67093;SHT31;54011;50.772;7.730;2023-05-10T06:45:26;18.48;73.49
67093;SHT31;54011;50.772;7.730;2023-05-10T06:47:53;18.39;73.85
67093;SHT31;54011;50.772;7.730;2023-05-10T06:50:19;18.21;73.80
67093;SHT31;54011;50.772;7.730;2023-05-10T06:52:44;18.06;73.94
67093;SHT31;54011;50.772;7.730;2023-05-10T06:55:10;18.26;73.95
67093;SHT31;54011;50.772;7.730;2023-05-10T06:57:36;18.19;73.57
67093;SHT31;54011;50.772;7.730;2023-05-10T07:00:03;18.45;73.10
67093;SHT31;54011;50.772;7.730;2023-05-10T07:02:31;18.12;73.89
67093;SHT31;54011;50.772;7.730;2023-05-10T07:04:58;18.01;74.03
67093;SHT31;54011;50.772;7.730;2023-05-10T07:07:23;18.34;73.70
67093;SHT31;54011;50.772;7.730;2023-05-10T07:09:49;18.36;73.42
67093;SHT31;54011;50.772;7.730;2023-05-10T07:12:16;18.00;74.37
67093;SHT31;54011;50.772;7.730;2023-05-10T07:14:42;18.05;73.85
67093;SHT31;54011;50.772;7.730;2023-05-10T07:17:09;18.24;73.60
67093;SHT31;54011;50.772;7.730;2023-05-10T07:19:35;17.90;73.93
67093;SHT31;54011;50.772;7.730;2023-05-10T07:22:01;17.73;74.92
67093;SHT31;54011;50.772;7.730;2023-05-10T07:24:26;17.85;74.16
67093;SHT31;54011;50.772;7.730;2023-05-10T07:26:53;17.90;74.18
67093;SHT31;54011;50.772;7.730;2023-05-10T07:29:19;17.94;74.17
67093;SHT31;54011;50.772;7.730;2023-05-10T07:31:45;17.93;74.80
67093;SHT31;54011;50.772;7.730;2023-05-10T07:34:11;17.95;74.18
67093;SHT31;54011;50.772;7.730;2023-05-10T07:36:36;18.51;73.30
67093;SHT31;54011;50.772;7.730;2023-05-10T07:39:01;18.32;73.16
67093;SHT31;54011;50.772;7.730;2023-05-10T07:41:27;18.62;73.30
67093;SHT31;54011;50.772;7.730;2023-05-10T07:43:53;18.18;73.93
67093;SHT31;54011;50.772;7.730;2023-05-10T07:46:18;18.99;72.55
67093;SHT31;54011;50.772;7.730;2023-05-10T07:48:45;19.03;72.69
67093;SHT31;54011;50.772;7.730;2023-05-10T07:51:11;19.04;72.38
67093;SHT31;54011;50.772;7.730;2023-05-10T07:53:37;19.30;71.80
67093;SHT31;54011;50.772;7.730;2023-05-10T07:56:26;19.20;71.12
67093;SHT31;54011;50.772;7.730;2023-05-10T07:59:02;19.21;71.57
67093;SHT31;54011;50.772;7.730;2023-05-10T08:01:33;19.07;71.89
67093;SHT31;54011;50.772;7.730;2023-05-10T08:03:59;19.41;71.87
67093;SHT31;54011;50.772;7.730;2023-05-10T08:06:25;19.52;71.63
67093;SHT31;54011;50.772;7.730;2023-05-10T08:08:53;19.34;71.93
67093;SHT31;54011;50.772;7.730;2023-05-10T08:11:20;19.41;70.69
67093;SHT31;54011;50.772;7.730;2023-05-10T08:13:47;19.51;72.14
67093;SHT31;54011;50.772;7.730;2023-05-10T08:16:13;20.00;70.32
67093;SHT31;54011;50.772;7.730;2023-05-10T08:18:39;19.92;70.94
67093;SHT31;54011;50.772;7.730;2023-05-10T08:21:05;19.81;70.72
67093;SHT31;54011;50.772;7.730;2023-05-10T08:23:31;19.45;71.95
67093;SHT31;54011;50.772;7.730;2023-05-10T08:25:57;19.48;70.89
67093;SHT31;54011;50.772;7.730;2023-05-10T08:28:22;19.23;72.08
67093;SHT31;54011;50.772;7.730;2023-05-10T08:30:49;19.44;71.01
67093;SHT31;54011;50.772;7.730;2023-05-10T08:33:15;19.35;71.33
67093;SHT31;54011;50.772;7.730;2023-05-10T08:35:40;19.10;71.49
67093;SHT31;54011;50.772;7.730;2023-05-10T08:38:06;19.20;72.44
67093;SHT31;54011;50.772;7.730;2023-05-10T08:40:32;19.31;72.49
67093;SHT31;54011;50.772;7.730;2023-05-10T08:43:05;19.44;71.28
67093;SHT31;54011;50.772;7.730;2023-05-10T08:45:33;19.39;71.49
67093;SHT31;54011;50.772;7.730;2023-05-10T08:48:01;19.13;72.98
67093;SHT31;54011;50.772;7.730;2023-05-10T08:50:27;19.39;73.54
67093;SHT31;54011;50.772;7.730;2023-05-10T08:52:55;19.54;72.16
67093;SHT31;54011;50.772;7.730;2023-05-10T08:55:23;19.13;72.29
67093;SHT31;54011;50.772;7.730;2023-05-10T08:57:49;19.36;71.36
67093;SHT31;54011;50.772;7.730;2023-05-10T09:00:18;19.10;72.41
67093;SHT31;54011;50.772;7.730;2023-05-10T09:02:44;18.94;71.80
67093;SHT31;54011;50.772;7.730;2023-05-10T09:05:12;18.90;70.85
67093;SHT31;54011;50.772;7.730;2023-05-10T09:07:37;19.20;71.15
67093;SHT31;54011;50.772;7.730;2023-05-10T09:10:04;19.45;71.32
67093;SHT31;54011;50.772;7.730;2023-05-10T09:12:30;19.76;70.21
67093;SHT31;54011;50.772;7.730;2023-05-10T09:14:55;19.61;70.45
67093;SHT31;54011;50.772;7.730;2023-05-10T09:17:23;19.79;70.37
67093;SHT31;54011;50.772;7.730;2023-05-10T09:19:50;20.00;70.66
67093;SHT31;54011;50.772;7.730;2023-05-10T09:22:16;20.55;69.16
67093;SHT31;54011;50.772;7.730;2023-05-10T09:24:42;19.75;69.59
67093;SHT31;54011;50.772;7.730;2023-05-10T09:27:11;19.30;69.70
67093;SHT31;54011;50.772;7.730;2023-05-10T09:29:42;19.76;69.64
67093;SHT31;54011;50.772;7.730;2023-05-10T09:32:07;19.97;70.54
67093;SHT31;54011;50.772;7.730;2023-05-10T09:34:34;20.30;71.22
67093;SHT31;54011;50.772;7.730;2023-05-10T09:37:02;21.02;68.92
67093;SHT31;54011;50.772;7.730;2023-05-10T09:39:37;20.75;68.99
67093;SHT31;54011;50.772;7.730;2023-05-10T09:42:08;20.37;69.94
67093;SHT31;54011;50.772;7.730;2023-05-10T09:44:35;19.76;70.25
67093;SHT31;54011;50.772;7.730;2023-05-10T09:47:01;20.08;70.64
67093;SHT31;54011;50.772;7.730;2023-05-10T09:49:29;20.78;68.84
67093;SHT31;54011;50.772;7.730;2023-05-10T09:52:05;20.08;69.61
67093;SHT31;54011;50.772;7.730;2023-05-10T09:54:31;20.32;70.05
67093;SHT31;54011;50.772;7.730;2023-05-10T09:56:57;20.78;69.35
67093;SHT31;54011;50.772;7.730;2023-05-10T09:59:25;21.11;68.09
67093;SHT31;54011;50.772;7.730;2023-05-10T10:01:51;20.70;68.29
67093;SHT31;54011;50.772;7.730;2023-05-10T10:04:20;20.63;69.24
67093;SHT31;54011;50.772;7.730;2023-05-10T10:06:46;21.02;68.54
67093;SHT31;54011;50.772;7.730;2023-05-10T10:09:23;20.75;66.71
67093;SHT31;54011;50.772;7.730;2023-05-10T10:11:49;21.79;66.68
67093;SHT31;54011;50.772;7.730;2023-05-10T10:14:18;21.66;66.20
67093;SHT31;54011;50.772;7.730;2023-05-10T10:16:47;21.46;66.29
67093;SHT31;54011;50.772;7.730;2023-05-10T10:19:12;20.82;65.26
67093;SHT31;54011;50.772;7.730;2023-05-10T10:21:38;20.36;68.64
67093;SHT31;54011;50.772;7.730;2023-05-10T10:24:03;20.65;68.02
67093;SHT31;54011;50.772;7.730;2023-05-10T10:26:35;20.33;67.72
67093;SHT31;54011;50.772;7.730;2023-05-10T10:32:18;19.41;70.67
67093;SHT31;54011;50.772;7.730;2023-05-10T10:34:45;19.79;70.12
67093;SHT31;54011;50.772;7.730;2023-05-10T10:37:11;19.35;69.53
67093;SHT31;54011;50.772;7.730;2023-05-10T10:39:36;19.36;68.92
67093;SHT31;54011;50.772;7.730;2023-05-10T10:42:03;19.76;69.70
67093;SHT31;54011;50.772;7.730;2023-05-10T10:49:25;19.85;70.72
67093;SHT31;54011;50.772;7.730;2023-05-10T10:52:30;19.83;69.93
67093;SHT31;54011;50.772;7.730;2023-05-10T10:55:09;19.15;70.93
67093;SHT31;54011;50.772;7.730;2023-05-10T10:57:49;18.73;71.65
67093;SHT31;54011;50.772;7.730;2023-05-10T11:00:32;19.41;71.25
67093;SHT31;54011;50.772;7.730;2023-05-10T11:05:46;19.32;70.80
67093;SHT31;54011;50.772;7.730;2023-05-10T11:08:26;19.58;72.04
67093;SHT31;54011;50.772;7.730;2023-05-10T11:13:44;20.27;69.97
67093;SHT31;54011;50.772;7.730;2023-05-10T11:16:21;20.17;69.72
67093;SHT31;54011;50.772;7.730;2023-05-10T11:19:07;19.51;70.19
67093;SHT31;54011;50.772;7.730;2023-05-10T11:22:28;19.47;71.14
67093;SHT31;54011;50.772;7.730;2023-05-10T11:24:29;20.12;71.26
67093;SHT31;54011;50.772;7.730;2023-05-10T11:26:55;19.59;71.14
67093;SHT31;54011;50.772;7.730;2023-05-10T11:29:21;19.28;71.37
67093;SHT31;54011;50.772;7.730;2023-05-10T11:31:48;19.52;72.60
67093;SHT31;54011;50.772;7.730;2023-05-10T11:34:31;20.22;69.50
67093;SHT31;54011;50.772;7.730;2023-05-10T11:36:59;20.64;69.20
67093;SHT31;54011;50.772;7.730;2023-05-10T11:39:30;20.85;68.15
67093;SHT31;54011;50.772;7.730;2023-05-10T11:41:56;20.90;68.02
67093;SHT31;54011;50.772;7.730;2023-05-10T11:44:22;21.31;67.27
67093;SHT31;54011;50.772;7.730;2023-05-10T11:46:48;21.38;67.12
67093;SHT31;54011;50.772;7.730;2023-05-10T11:49:14;21.26;66.11
67093;SHT31;54011;50.772;7.730;2023-05-10T11:51:39;20.68;67.25
67093;SHT31;54011;50.772;7.730;2023-05-10T11:54:08;20.85;67.09
67093;SHT31;54011;50.772;7.730;2023-05-10T11:56:34;20.90;68.53
67093;SHT31;54011;50.772;7.730;2023-05-10T11:59:00;20.09;67.64
67093;SHT31;54011;50.772;7.730;2023-05-10T12:01:28;20.26;68.73
67093;SHT31;54011;50.772;7.730;2023-05-10T12:03:55;19.65;69.65
67093;SHT31;54011;50.772;7.730;2023-05-10T12:06:26;20.05;68.95
67093;SHT31;54011;50.772;7.730;2023-05-10T12:08:52;20.22;69.60
67093;SHT31;54011;50.772;7.730;2023-05-10T12:11:19;19.48;70.10
67093;SHT31;54011;50.772;7.730;2023-05-10T12:13:47;19.64;69.54
67093;SHT31;54011;50.772;7.730;2023-05-10T12:16:20;19.61;68.60
67093;SHT31;54011;50.772;7.730;2023-05-10T12:18:51;19.24;69.46
67093;SHT31;54011;50.772;7.730;2023-05-10T12:21:17;19.03;69.72
67093;SHT31;54011;50.772;7.730;2023-05-10T12:23:46;19.95;69.05
67093;SHT31;54011;50.772;7.730;2023-05-10T12:26:12;20.05;67.19
67093;SHT31;54011;50.772;7.730;2023-05-10T12:28:38;19.00;69.47
67093;SHT31;54011;50.772;7.730;2023-05-10T12:31:07;19.75;69.32
67093;SHT31;54011;50.772;7.730;2023-05-10T12:33:40;19.76;70.75
67093;SHT31;54011;50.772;7.730;2023-05-10T12:36:13;19.28;70.44
67093;SHT31;54011;50.772;7.730;2023-05-10T12:38:41;19.04;71.18
67093;SHT31;54011;50.772;7.730;2023-05-10T12:41:15;19.30;70.65
67093;SHT31;54011;50.772;7.730;2023-05-10T12:43:41;19.55;69.62
67093;SHT31;54011;50.772;7.730;2023-05-10T12:48:33;19.51;70.17
67093;SHT31;54011;50.772;7.730;2023-05-10T12:51:00;19.54;70.58
67093;SHT31;54011;50.772;7.730;2023-05-10T12:53:26;19.62;69.25
67093;SHT31;54011;50.772;7.730;2023-05-10T12:55:51;20.27;69.03
67093;SHT31;54011;50.772;7.730;2023-05-10T12:58:17;20.55;69.23
67093;SHT31;54011;50.772;7.730;2023-05-10T13:00:42;20.64;68.41
67093;SHT31;54011;50.772;7.730;2023-05-10T13:03:09;20.51;69.07
67093;SHT31;54011;50.772;7.730;2023-05-10T13:05:35;20.33;68.58
67093;SHT31;54011;50.772;7.730;2023-05-10T13:08:00;20.82;67.23
67093;SHT31;54011;50.772;7.730;2023-05-10T13:10:26;20.44;68.04
67093;SHT31;54011;50.772;7.730;2023-05-10T13:12:52;20.53;67.24
67093;SHT31;54011;50.772;7.730;2023-05-10T13:15:17;20.34;67.79
67093;SHT31;54011;50.772;7.730;2023-05-10T13:17:43;20.67;68.06
67093;SHT31;54011;50.772;7.730;2023-05-10T13:20:09;21.01;64.72
67093;SHT31;54011;50.772;7.730;2023-05-10T13:22:35;20.90;66.20
67093;SHT31;54011;50.772;7.730;2023-05-10T13:25:01;20.96;65.45
67093;SHT31;54011;50.772;7.730;2023-05-10T13:27:27;21.21;66.25
67093;SHT31;54011;50.772;7.730;2023-05-10T13:29:53;21.28;64.84
67093;SHT31;54011;50.772;7.730;2023-05-10T13:32:20;21.43;65.43
67093;SHT31;54011;50.772;7.730;2023-05-10T13:34:46;22.25;62.67
67093;SHT31;54011;50.772;7.730;2023-05-10T13:37:11;23.40;60.92
67093;SHT31;54011;50.772;7.730;2023-05-10T13:39:37;23.02;62.46
67093;SHT31;54011;50.772;7.730;2023-05-10T13:42:03;22.31;62.73
67093;SHT31;54011;50.772;7.730;2023-05-10T13:44:29;22.18;63.88
67093;SHT31;54011;50.772;7.730;2023-05-10T13:46:56;22.35;61.72
67093;SHT31;54011;50.772;7.730;2023-05-10T13:49:21;21.83;63.83
67093;SHT31;54011;50.772;7.730;2023-05-10T13:51:47;22.05;62.82
67093;SHT31;54011;50.772;7.730;2023-05-10T13:54:13;21.93;63.56
67093;SHT31;54011;50.772;7.730;2023-05-10T13:56:39;22.98;61.28
67093;SHT31;54011;50.772;7.730;2023-05-10T13:59:06;23.04;61.43
67093;SHT31;54011;50.772;7.730;2023-05-10T14:01:33;22.63;60.84
67093;SHT31;54011;50.772;7.730;2023-05-10T14:03:59;22.20;60.85
67093;SHT31;54011;50.772;7.730;2023-05-10T14:06:24;21.57;64.65
67093;SHT31;54011;50.772;7.730;2023-05-10T14:08:50;22.35;64.20
67093;SHT31;54011;50.772;7.730;2023-05-10T14:11:15;22.21;65.33
67093;SHT31;54011;50.772;7.730;2023-05-10T14:13:41;22.81;63.22
67093;SHT31;54011;50.772;7.730;2023-05-10T14:16:06;22.92;63.02
67093;SHT31;54011;50.772;7.730;2023-05-10T14:18:32;23.23;64.03
67093;SHT31;54011;50.772;7.730;2023-05-10T14:20:57;22.77;63.92
67093;SHT31;54011;50.772;7.730;2023-05-10T14:23:23;22.90;62.01
67093;SHT31;54011;50.772;7.730;2023-05-10T14:25:53;23.10;63.30
67093;SHT31;54011;50.772;7.730;2023-05-10T14:28:19;22.62;62.99
67093;SHT31;54011;50.772;7.730;2023-05-10T14:30:46;22.00;64.57
67093;SHT31;54011;50.772;7.730;2023-05-10T14:33:12;21.93;63.90
67093;SHT31;54011;50.772;7.730;2023-05-10T14:35:38;21.83;64.90
67093;SHT31;54011;50.772;7.730;2023-05-10T14:38:03;21.87;65.15
67093;SHT31;54011;50.772;7.730;2023-05-10T14:40:29;21.45;66.06
67093;SHT31;54011;50.772;7.730;2023-05-10T14:42:55;21.18;65.90
67093;SHT31;54011;50.772;7.730;2023-05-10T14:45:22;21.13;67.29
67093;SHT31;54011;50.772;7.730;2023-05-10T14:47:47;20.90;66.36
67093;SHT31;54011;50.772;7.730;2023-05-10T14:50:14;20.50;97.33
67093;SHT31;54011;50.772;7.730;2023-05-10T14:52:39;20.20;98.22
67093;SHT31;54011;50.772;7.730;2023-05-10T14:55:05;19.36;95.81
67093;SHT31;54011;50.772;7.730;2023-05-10T14:57:31;19.27;74.24
67093;SHT31;54011;50.772;7.730;2023-05-10T14:59:57;18.84;75.12
67093;SHT31;54011;50.772;7.730;2023-05-10T15:02:23;18.72;75.09
67093;SHT31;54011;50.772;7.730;2023-05-10T15:04:48;19.21;72.28
67093;SHT31;54011;50.772;7.730;2023-05-10T15:07:14;19.35;72.40
67093;SHT31;54011;50.772;7.730;2023-05-10T15:09:40;19.31;72.59
67093;SHT31;54011;50.772;7.730;2023-05-10T15:12:06;18.74;73.18
67093;SHT31;54011;50.772;7.730;2023-05-10T15:14:32;19.14;73.34
67093;SHT31;54011;50.772;7.730;2023-05-10T15:16:58;19.39;71.83
67093;SHT31;54011;50.772;7.730;2023-05-10T15:19:24;18.93;72.44
67093;SHT31;54011;50.772;7.730;2023-05-10T15:21:50;19.11;71.00
67093;SHT31;54011;50.772;7.730;2023-05-10T15:24:15;19.41;70.96
67093;SHT31;54011;50.772;7.730;2023-05-10T15:26:41;19.48;70.41
67093;SHT31;54011;50.772;7.730;2023-05-10T15:29:06;19.89;69.77
67093;SHT31;54011;50.772;7.730;2023-05-10T15:31:32;20.02;67.82
67093;SHT31;54011;50.772;7.730;2023-05-10T15:34:00;20.24;69.21
67093;SHT31;54011;50.772;7.730;2023-05-10T15:36:26;20.29;69.00
67093;SHT31;54011;50.772;7.730;2023-05-10T15:38:53;20.45;68.78
67093;SHT31;54011;50.772;7.730;2023-05-10T15:41:19;20.84;68.44
67093;SHT31;54011;50.772;7.730;2023-05-10T15:43:45;20.75;67.35
67093;SHT31;54011;50.772;7.730;2023-05-10T15:46:13;20.77;67.47
67093;SHT31;54011;50.772;7.730;2023-05-10T15:48:39;20.23;68.42
67093;SHT31;54011;50.772;7.730;2023-05-10T15:51:04;19.79;69.36
67093;SHT31;54011;50.772;7.730;2023-05-10T15:53:30;20.40;68.37
67093;SHT31;54011;50.772;7.730;2023-05-10T15:55:56;20.65;67.66
67093;SHT31;54011;50.772;7.730;2023-05-10T15:58:22;21.13;67.13
67093;SHT31;54011;50.772;7.730;2023-05-10T16:00:47;21.05;66.14
67093;SHT31;54011;50.772;7.730;2023-05-10T16:03:13;21.13;67.39
67093;SHT31;54011;50.772;7.730;2023-05-10T16:05:38;21.06;66.52
67093;SHT31;54011;50.772;7.730;2023-05-10T16:08:05;21.05;67.19
67093;SHT31;54011;50.772;7.730;2023-05-10T16:10:31;20.61;68.60